Time;durP1;ratioP1;P1;durP2;ratioP2;P2;SDS_P1;SDS_P2;PMS_P1;PMS_P2;Temp;Humidity;BMP_temperature;BMP_pressure;BME280_temperature;BME280_humidity;BME280_pressure;Samples;Min_cycle;Max_cycle;Signal;HPM_P1;HPM_P2
2021/01/09 00:00:26;;;;;;;68.70;30.20;;;;;;;0.81;86.88;100650.86;4925048;58;1140523;-83
2021/01/09 00:05:33;;;;;;;95.10;38.07;;;;;;;0.82;87.00;100657.31;4980261;58;1138477;-83
2021/01/09 00:10:39;;;;;;;105.05;41.63;;;;;;;0.79;87.09;100650.91;4927451;58;1138839;-82
2021/01/09 00:15:44;;;;;;;78.40;36.63;;;;;;;0.83;87.04;100660.77;4835472;59;1140570;-82
2021/01/09 00:20:51;;;;;;;82.87;35.83;;;;;;;0.82;86.97;100646.05;4891912;59;1138255;-83
2021/01/09 00:25:56;;;;;;;73.07;33.13;;;;;;;0.90;86.94;100659.66;4854269;59;1139047;-83
2021/01/09 00:31:02;;;;;;;74.37;32.40;;;;;;;0.89;87.01;100658.81;4887630;58;1139264;-83
2021/01/09 00:36:07;;;;;;;77.60;35.73;;;;;;;0.85;87.11;100663.72;4888253;58;1138378;-82
2021/01/09 00:41:13;;;;;;;80.07;34.93;;;;;;;0.86;87.02;100664.13;4787315;60;1138485;-83
2021/01/09 00:46:19;;;;;;;83.70;34.67;;;;;;;0.86;86.93;100666.73;4967328;58;1136804;-82
2021/01/09 00:51:24;;;;;;;73.13;32.60;;;;;;;0.88;86.95;100673.19;4987088;59;21188;-83
2021/01/09 00:56:30;;;;;;;82.87;33.33;;;;;;;0.87;87.05;100673.63;4892060;58;1134206;-83
2021/01/09 01:01:35;;;;;;;98.27;36.57;;;;;;;0.85;87.09;100672.84;4824284;60;1138308;-83
2021/01/09 01:06:41;;;;;;;105.75;38.40;;;;;;;0.85;87.12;100670.69;4892116;58;1138361;-83
2021/01/09 01:11:47;;;;;;;82.63;32.50;;;;;;;0.86;87.05;100670.63;4879120;58;1140591;-83
2021/01/09 01:16:53;;;;;;;85.07;33.23;;;;;;;0.85;87.11;100676.74;4909728;58;1138383;-83
2021/01/09 01:21:59;;;;;;;101.53;37.53;;;;;;;0.83;87.19;100677.24;4893576;58;1138369;-83
2021/01/09 01:27:05;;;;;;;95.57;36.83;;;;;;;0.87;87.24;100681.45;4951335;58;1140419;-83
2021/01/09 01:32:10;;;;;;;94.03;35.40;;;;;;;0.90;87.11;100685.25;4927655;58;1138221;-84
2021/01/09 01:37:16;;;;;;;77.83;32.03;;;;;;;0.94;87.13;100682.06;4988248;59;21156;-84
2021/01/09 01:42:21;;;;;;;81.10;32.53;;;;;;;0.93;87.25;100686.42;4912402;58;1134104;-83
2021/01/09 01:47:27;;;;;;;92.47;35.33;;;;;;;0.92;87.16;100689.08;4896427;58;1138424;-83
2021/01/09 01:52:33;;;;;;;79.07;32.80;;;;;;;0.89;87.08;100684.84;4968893;59;1134242;-83
2021/01/09 01:57:38;;;;;;;79.00;31.75;;;;;;;0.90;87.06;100690.45;4896712;58;1138666;-83
2021/01/09 02:02:44;;;;;;;76.87;32.33;;;;;;;0.93;87.19;100695.53;4909395;58;1138426;-84
2021/01/09 02:07:56;;;;;;;67.40;27.70;;;;;;;0.93;87.25;100693.38;4908714;58;1138401;-83
2021/01/09 02:13:11;;;;;;;81.87;33.97;;;;;;;0.90;87.30;100693.06;4892881;58;1138439;-83
2021/01/09 02:18:20;;;;;;;73.80;31.33;;;;;;;0.92;87.23;100696.88;4906418;59;1138461;-83
2021/01/09 02:23:28;;;;;;;75.40;32.27;;;;;;;0.93;87.11;100702.04;4892431;58;1138350;-83
2021/01/09 02:28:34;;;;;;;70.78;29.42;;;;;;;0.92;87.04;100703.39;4916009;58;1138566;-86
2021/01/09 02:33:42;;;;;;;57.13;27.20;;;;;;;0.91;87.07;100705.18;4892938;58;1138285;-83
2021/01/09 02:38:47;;;;;;;59.27;24.65;;;;;;;0.88;87.15;100702.67;4960332;58;1138421;-83
2021/01/09 02:43:53;;;;;;;74.30;30.60;;;;;;;0.84;87.26;100701.07;4853359;58;1138426;-83
2021/01/09 02:48:58;;;;;;;52.33;20.60;;;;;;;0.84;87.22;100706.73;4912932;59;1138452;-83
2021/01/09 02:54:04;;;;;;;61.00;26.13;;;;;;;0.85;87.21;100709.73;4896842;58;1138646;-83
2021/01/09 02:59:09;;;;;;;59.93;24.87;;;;;;;0.81;87.25;100708.98;4806185;60;1138448;-83
2021/01/09 03:04:15;;;;;;;67.07;25.90;;;;;;;0.80;87.25;100708.58;4949222;58;1138437;-83
2021/01/09 03:09:21;;;;;;;70.27;29.83;;;;;;;0.80;87.27;100711.64;4908641;59;1138291;-83
2021/01/09 03:14:26;;;;;;;59.07;23.83;;;;;;;0.82;87.31;100713.73;4890159;58;1138386;-83
2021/01/09 03:19:32;;;;;;;68.73;24.90;;;;;;;0.83;87.31;100719.34;4929022;58;1138255;-82
2021/01/09 03:24:37;;;;;;;68.33;28.03;;;;;;;0.81;87.46;100718.55;4988732;59;21144;-82
2021/01/09 03:29:43;;;;;;;59.10;23.63;;;;;;;0.81;87.41;100710.73;4893697;59;1134426;-83
2021/01/09 03:34:49;;;;;;;62.13;26.33;;;;;;;0.83;87.32;100716.30;4911500;59;1138280;-83
2021/01/09 03:39:54;;;;;;;73.30;27.30;;;;;;;0.84;87.32;100714.55;4987362;59;21169;-83
2021/01/09 03:45:00;;;;;;;57.60;23.57;;;;;;;0.79;87.38;100718.59;4989477;59;21191;-83
2021/01/09 03:50:07;;;;;;;53.60;21.53;;;;;;;0.81;87.39;100725.05;4886064;58;1134155;-83
2021/01/09 03:55:13;;;;;;;65.40;26.70;;;;;;;0.79;87.37;100725.11;4782721;60;1138289;-83
2021/01/09 04:00:19;;;;;;;66.23;24.07;;;;;;;0.77;87.46;100725.61;4886366;58;1138229;-83
2021/01/09 04:05:24;;;;;;;72.43;28.13;;;;;;;0.77;87.59;100729.95;4887139;58;1138332;-83
2021/01/09 04:10:30;;;;;;;53.73;19.97;;;;;;;0.79;87.58;100732.06;4896687;58;1138388;-83
2021/01/09 04:15:36;;;;;;;70.93;28.27;;;;;;;0.79;87.54;100734.66;4895445;58;1139215;-85
2021/01/09 04:20:42;;;;;;;59.30;22.40;;;;;;;0.81;87.59;100738.07;4903519;58;1138271;-83
2021/01/09 04:25:48;;;;;;;51.97;19.57;;;;;;;0.79;87.63;100739.42;4968469;58;1138488;-83
2021/01/09 04:30:53;;;;;;;60.08;22.02;;;;;;;0.77;87.68;100741.67;4889216;58;1138646;-83
2021/01/09 04:35:59;;;;;;;64.43;23.87;;;;;;;0.77;87.64;100755.54;4912658;58;1138329;-83
2021/01/09 04:41:04;;;;;;;65.97;24.63;;;;;;;0.75;87.63;100759.13;4893695;58;1138538;-84
2021/01/09 04:46:11;;;;;;;48.87;19.43;;;;;;;0.76;87.74;100765.59;4892620;58;1138547;-83
2021/01/09 04:51:17;;;;;;;47.37;19.97;;;;;;;0.75;87.84;100766.48;4911368;58;1138432;-84
2021/01/09 04:56:24;;;;;;;45.60;18.10;;;;;;;0.73;87.83;100768.73;4986271;59;21165;-83
2021/01/09 05:01:31;;;;;;;47.43;21.50;;;;;;;0.70;87.90;100774.89;4787534;60;1134318;-85
2021/01/09 05:06:39;;;;;;;56.17;23.37;;;;;;;0.65;88.08;100779.37;4931769;58;1138246;-83
2021/01/09 05:11:46;;;;;;;46.20;20.23;;;;;;;0.62;88.02;100782.08;4891337;58;1138609;-83
2021/01/09 05:16:52;;;;;;;36.33;15.20;;;;;;;0.64;88.06;100782.44;4909946;58;1138699;-83
2021/01/09 05:22:01;;;;;;;48.77;20.80;;;;;;;0.65;88.06;100788.04;4946399;59;1138456;-83
2021/01/09 05:27:07;;;;;;;35.10;13.75;;;;;;;0.68;88.06;100795.76;4892320;58;1138485;-83
2021/01/09 05:32:13;;;;;;;37.27;15.10;;;;;;;0.66;88.03;100794.95;4929709;58;1138216;-83
2021/01/09 05:37:25;;;;;;;26.60;11.20;;;;;;;0.67;87.96;100798.41;4814608;59;1138310;-83
2021/01/09 05:42:31;;;;;;;42.23;17.67;;;;;;;0.69;87.94;100799.21;4761632;59;1138744;-83
2021/01/09 05:47:39;;;;;;;23.70;8.30;;;;;;;0.66;87.99;100806.66;4834356;59;1134329;-83
2021/01/09 05:52:44;;;;;;;31.87;10.80;;;;;;;0.64;88.13;100811.52;4754942;59;1136516;-84
2021/01/09 05:57:52;;;;;;;24.87;10.03;;;;;;;0.54;87.90;100817.47;4769073;59;1138437;-83
2021/01/09 06:03:17;;;;;;;25.83;10.13;;;;;;;0.47;87.97;100828.95;4867545;60;21481;-83
2021/01/09 06:08:26;;;;;;;25.93;11.03;;;;;;;0.43;87.96;100833.02;4858660;60;21129;-83
2021/01/09 06:13:34;;;;;;;14.00;6.70;;;;;;;0.40;87.94;100843.07;4712678;60;1134350;-84
2021/01/09 06:18:41;;;;;;;13.60;5.97;;;;;;;0.40;87.84;100855.23;4659255;60;1136219;-83
2021/01/09 06:23:47;;;;;;;20.05;9.93;;;;;;;0.37;87.40;100861.38;4631891;60;1136395;-83
2021/01/09 06:28:57;;;;;;;13.95;6.92;;;;;;;0.32;87.43;100855.00;4685967;61;1137045;-83
2021/01/09 06:34:04;;;;;;;13.50;6.30;;;;;;;0.29;87.09;100859.46;4755643;61;1136459;-83
2021/01/09 06:39:10;;;;;;;25.83;10.13;;;;;;;0.29;87.21;100873.33;4801928;59;1136302;-83
2021/01/09 06:44:16;;;;;;;28.07;9.67;;;;;;;0.25;87.01;100883.41;4794183;59;1138290;-83
2021/01/09 06:49:27;;;;;;;36.07;12.63;;;;;;;0.21;86.93;100886.98;4887617;61;21153;-83
2021/01/09 06:54:44;;;;;;;24.43;10.97;;;;;;;0.18;87.06;100892.27;4782584;62;1134327;-83
2021/01/09 06:59:52;;;;;;;15.13;6.20;;;;;;;0.18;87.00;100894.87;4792844;59;1148036;-83
2021/01/09 07:05:06;;;;;;;11.33;6.90;;;;;;;0.22;87.00;100893.89;4831640;59;1136252;-83
2021/01/09 07:10:26;;;;;;;10.30;6.70;;;;;;;0.19;86.87;100900.48;4887391;60;21191;-83
2021/01/09 07:15:37;;;;;;;13.67;8.40;;;;;;;0.18;86.89;100901.82;4831739;59;1132305;-84
2021/01/09 07:20:49;;;;;;;19.97;10.70;;;;;;;0.13;86.67;100903.73;4670041;60;1136305;-83
2021/01/09 07:25:57;;;;;;;20.48;9.73;;;;;;;0.11;86.88;100909.41;4666520;61;1138454;-83
2021/01/09 07:31:11;;;;;;;16.73;7.30;;;;;;;0.11;86.81;100912.02;4793022;60;1136588;-83
2021/01/09 07:36:18;;;;;;;13.58;7.70;;;;;;;0.10;86.70;100911.61;4702167;60;1136312;-83
2021/01/09 07:41:38;;;;;;;13.67;6.97;;;;;;;0.09;86.67;100909.45;4742208;60;1136257;-83
2021/01/09 07:46:58;;;;;;;21.10;10.27;;;;;;;0.13;86.72;100923.23;4719561;60;1136455;-83
2021/01/09 07:52:09;;;;;;;15.90;8.70;;;;;;;0.15;86.71;100925.34;4854035;59;1136464;-83
2021/01/09 07:57:30;;;;;;;12.87;6.93;;;;;;;0.15;86.72;100927.50;4883093;59;1136407;-83
2021/01/09 08:02:40;;;;;;;8.57;4.97;;;;;;;0.17;86.71;100933.92;4904932;58;1136489;-83
2021/01/09 08:07:59;;;;;;;8.03;5.60;;;;;;;0.20;86.57;100937.75;4860781;59;1134153;-83
2021/01/09 08:13:09;;;;;;;14.13;6.97;;;;;;;0.16;86.57;100935.67;4842672;59;1134612;-83
2021/01/09 08:18:15;;;;;;;6.87;4.67;;;;;;;0.14;86.64;100943.14;4881969;59;1136172;-83
2021/01/09 08:23:21;;;;;;;7.33;4.80;;;;;;;0.16;86.66;100946.52;4919329;59;1134323;-83
2021/01/09 08:28:26;;;;;;;7.63;5.17;;;;;;;0.16;86.73;100955.18;4861337;59;1134225;-83
2021/01/09 08:33:33;;;;;;;8.63;5.65;;;;;;;0.14;86.50;100954.84;4900415;59;1134300;-83
2021/01/09 08:38:40;;;;;;;10.20;7.30;;;;;;;0.11;86.54;100954.92;4843089;59;1134359;-83
2021/01/09 08:43:45;;;;;;;14.43;8.67;;;;;;;0.09;86.43;100959.31;4900605;59;1136178;-86
2021/01/09 08:48:51;;;;;;;8.13;5.00;;;;;;;0.09;86.59;100966.66;4844458;59;1136582;-86
2021/01/09 08:54:12;;;;;;;12.90;6.97;;;;;;;0.12;86.72;100976.98;4861271;59;1134181;-86
2021/01/09 08:59:16;;;;;;;18.80;9.90;;;;;;;0.08;86.21;100972.76;4881855;59;1136321;-85
2021/01/09 09:04:22;;;;;;;12.37;7.97;;;;;;;0.07;86.46;100987.95;4878716;59;1136232;-85
2021/01/09 09:09:29;;;;;;;15.47;8.50;;;;;;;0.11;86.35;100993.93;4842527;59;1136486;-86
2021/01/09 09:14:35;;;;;;;11.50;5.63;;;;;;;0.10;86.24;100986.58;4855122;59;1136697;-86
2021/01/09 09:19:42;;;;;;;15.00;7.72;;;;;;;0.12;86.37;100996.50;4831910;59;1144489;-88
2021/01/09 09:24:47;;;;;;;15.93;8.53;;;;;;;0.10;86.36;100996.98;4813253;59;1136699;-86
2021/01/09 09:30:17;;;;;;;13.10;7.65;;;;;;;0.13;86.30;100990.84;4844539;59;1136470;-85
2021/01/09 09:35:30;;;;;;;39.40;26.13;;;;;;;0.14;86.17;100987.35;4863286;59;1136186;-86
2021/01/09 09:40:37;;;;;;;18.92;12.03;;;;;;;0.12;85.97;100985.23;4903781;59;1138656;-87
2021/01/09 09:45:59;;;;;;;9.27;7.13;;;;;;;0.10;85.28;100985.72;4787550;59;1138593;-86
2021/01/09 09:51:08;;;;;;;9.87;7.50;;;;;;;0.07;84.81;100987.95;4794092;59;1134559;-86
2021/01/09 09:56:19;;;;;;;16.53;8.37;;;;;;;0.00;84.93;100987.25;4804358;59;1134402;-85
2021/01/09 10:01:25;;;;;;;25.17;14.40;;;;;;;-0.09;84.97;100984.05;4805018;59;1136291;-85
2021/01/09 10:06:40;;;;;;;15.53;9.50;;;;;;;-0.09;85.27;100984.05;4804249;59;1140693;-85
2021/01/09 10:11:47;;;;;;;27.60;11.27;;;;;;;-0.10;85.30;100990.14;4864134;59;1136456;-85
2021/01/09 10:16:53;;;;;;;37.07;14.20;;;;;;;-0.07;85.29;100990.92;4884590;60;21894;-85
2021/01/09 10:21:58;;;;;;;20.97;8.57;;;;;;;-0.08;85.25;100989.22;4785137;59;1136255;-85
2021/01/09 10:27:04;;;;;;;16.53;7.87;;;;;;;-0.07;85.21;100990.06;4789576;59;1138433;-85
2021/01/09 10:32:10;;;;;;;12.33;5.67;;;;;;;-0.10;84.67;100996.20;4784982;59;1138388;-91
2021/01/09 10:37:15;;;;;;;13.20;6.43;;;;;;;-0.11;84.39;100995.79;4847279;59;1138507;-85
2021/01/09 10:42:21;;;;;;;28.57;12.50;;;;;;;-0.13;84.69;101000.61;4798938;59;1138638;-85
2021/01/09 10:47:27;;;;;;;221.67;141.00;;;;;;;-0.12;84.93;101001.88;4852812;59;1141397;-85
2021/01/09 10:52:32;;;;;;;23.20;10.33;;;;;;;-0.08;84.73;101003.96;4832980;59;1144518;-85
2021/01/09 10:57:38;;;;;;;13.13;8.93;;;;;;;-0.13;84.39;101002.77;4889443;59;1136341;-85
2021/01/09 11:02:44;;;;;;;11.23;6.07;;;;;;;-0.16;84.44;101005.92;4833488;59;1138349;-85
2021/01/09 11:07:49;;;;;;;28.55;10.78;;;;;;;-0.21;84.42;101002.58;4824211;59;1138531;-84
2021/01/09 11:12:55;;;;;;;10.40;4.83;;;;;;;-0.23;84.73;101007.81;4833470;59;1140460;-85
2021/01/09 11:18:00;;;;;;;16.80;7.27;;;;;;;-0.20;84.83;101009.48;4889811;59;1138376;-85
2021/01/09 11:23:07;;;;;;;17.87;11.07;;;;;;;-0.16;84.95;101011.97;4819571;58;1138422;-85
2021/01/09 11:28:13;;;;;;;18.77;8.03;;;;;;;-0.14;84.94;101011.46;4853389;59;1140332;-84
2021/01/09 11:33:19;;;;;;;27.27;16.27;;;;;;;-0.05;84.94;101009.09;4890924;59;1138657;-84
2021/01/09 11:38:24;;;;;;;29.87;18.60;;;;;;;-0.05;84.77;101016.89;4640310;60;1140684;-85
2021/01/09 11:43:31;;;;;;;35.03;15.77;;;;;;;-0.02;84.79;101012.91;4785525;58;1140668;-84
2021/01/09 11:48:37;;;;;;;13.67;7.60;;;;;;;0.02;84.86;101014.52;4787061;59;1140505;-90
2021/01/09 11:53:50;;;;;;;10.90;5.87;;;;;;;0.06;84.82;101008.80;4766489;59;1136581;-89
2021/01/09 11:58:56;;;;;;;14.93;6.57;;;;;;;0.06;84.58;101010.95;4766106;59;1136292;-89
2021/01/09 12:04:01;;;;;;;16.77;12.03;;;;;;;0.11;84.57;101014.29;4777685;58;1136649;-89
2021/01/09 12:09:07;;;;;;;12.00;6.43;;;;;;;0.15;84.72;101010.72;4787161;59;1138957;-89
2021/01/09 12:14:15;;;;;;;38.07;18.17;;;;;;;0.18;84.64;101014.52;4859004;60;21149;-89
2021/01/09 12:19:25;;;;;;;76.00;20.17;;;;;;;0.19;84.75;101018.82;4787039;59;1134307;-89
2021/01/09 12:24:28;;;;;;;54.63;14.27;;;;;;;0.23;84.68;101018.30;4773250;59;1138793;-89
2021/01/09 12:29:33;;;;;;;17.63;5.57;;;;;;;0.24;84.65;101014.36;4769089;59;1138820;-90
2021/01/09 12:34:38;;;;;;;66.70;16.13;;;;;;;0.22;84.24;101015.29;4768059;59;1136237;-89
2021/01/09 12:39:44;;;;;;;41.13;14.07;;;;;;;0.20;84.53;101017.93;4785300;59;1138345;-89
2021/01/09 12:44:50;;;;;;;14.03;6.12;;;;;;;0.18;84.58;101024.92;4815607;58;1138603;-89
2021/01/09 12:49:55;;;;;;;14.33;6.67;;;;;;;0.21;84.64;101027.44;4863737;59;1136381;-90
2021/01/09 12:55:01;;;;;;;6.80;4.20;;;;;;;0.18;84.33;101023.61;4863911;59;1136371;-89
2021/01/09 13:00:08;;;;;;;5.53;3.62;;;;;;;0.16;84.35;101038.84;4844731;59;1134144;-90
2021/01/09 13:05:14;;;;;;;8.27;4.47;;;;;;;0.11;83.97;101032.49;4844648;59;1134076;-89
2021/01/09 13:10:21;;;;;;;31.47;15.57;;;;;;;0.07;84.09;101036.51;4799426;59;1134612;-92
2021/01/09 13:15:26;;;;;;;26.33;15.77;;;;;;;0.06;84.43;101040.85;4857126;59;1138283;-88
2021/01/09 13:20:32;;;;;;;11.77;5.77;;;;;;;0.05;84.42;101041.74;4841026;59;1138374;-89
2021/01/09 13:25:38;;;;;;;7.77;4.07;;;;;;;0.05;84.40;101037.84;4873380;59;1136349;-89
2021/01/09 13:30:44;;;;;;;14.47;6.90;;;;;;;0.10;84.38;101041.19;4875614;59;1134140;-88
2021/01/09 13:35:50;;;;;;;146.67;36.47;;;;;;;0.11;84.42;101039.00;4839083;59;1136704;-88
2021/01/09 13:40:55;;;;;;;314.50;84.63;;;;;;;0.11;84.45;101047.24;4871560;59;1140460;-89
2021/01/09 13:46:01;;;;;;;188.90;67.65;;;;;;;0.14;84.42;101051.92;4891711;58;1140955;-88
2021/01/09 13:51:06;;;;;;;112.87;50.07;;;;;;;0.14;84.32;101057.13;4792816;59;1140779;-89
2021/01/09 13:56:12;;;;;;;29.43;14.17;;;;;;;0.17;84.31;101056.16;4827940;59;1140353;-89
2021/01/09 14:01:24;;;;;;;64.13;33.10;;;;;;;0.15;84.00;101061.44;4829186;59;1138480;-89
2021/01/09 14:06:29;;;;;;;22.73;12.57;;;;;;;0.15;84.19;101058.84;4797068;59;1138691;-89
2021/01/09 14:11:35;;;;;;;14.15;8.40;;;;;;;0.18;84.31;101058.73;4795663;59;1138297;-90
2021/01/09 14:16:41;;;;;;;9.50;5.63;;;;;;;0.16;84.35;101064.41;4792652;59;1136665;-90
2021/01/09 14:21:47;;;;;;;119.23;44.57;;;;;;;0.15;84.03;101058.84;4794505;59;1134588;-89
2021/01/09 14:26:57;;;;;;;477.13;171.87;;;;;;;0.15;84.17;101058.84;4793322;59;1140696;-89
2021/01/09 14:32:04;;;;;;;309.47;108.50;;;;;;;0.17;84.34;101057.47;4789933;59;1142626;-89
2021/01/09 14:37:11;;;;;;;46.27;17.13;;;;;;;0.19;84.43;101059.58;4792500;59;1143150;-89
2021/01/09 14:42:18;;;;;;;76.20;29.40;;;;;;;0.19;84.19;101065.64;4814057;59;1138429;-87
2021/01/09 14:47:24;;;;;;;42.67;19.23;;;;;;;0.21;84.38;101061.26;4803225;59;1138601;-88
2021/01/09 14:52:29;;;;;;;27.77;13.77;;;;;;;0.23;84.31;101064.67;4815114;59;1138304;-89
2021/01/09 14:57:35;;;;;;;14.73;8.63;;;;;;;0.23;84.26;101056.02;4815380;59;1138490;-89
2021/01/09 15:02:40;;;;;;;12.97;8.07;;;;;;;0.22;84.01;101054.30;4833841;59;1136668;-88
2021/01/09 15:07:46;;;;;;;18.60;9.40;;;;;;;0.21;84.27;101061.26;4820102;59;1136217;-88
2021/01/09 15:12:51;;;;;;;10.17;6.20;;;;;;;0.19;84.43;101068.24;4816807;59;1136594;-88
2021/01/09 15:17:57;;;;;;;9.63;6.35;;;;;;;0.19;84.31;101072.14;4844540;59;1136396;-88
2021/01/09 15:23:03;;;;;;;16.00;8.83;;;;;;;0.18;84.45;101075.64;4961447;60;21299;-87
2021/01/09 15:28:09;;;;;;;747.00;270.07;;;;;;;0.18;84.56;101084.73;4968506;60;21223;-87
2021/01/09 15:33:14;;;;;;;213.03;61.00;;;;;;;0.19;84.54;101086.89;4968753;60;21271;-87
2021/01/09 15:38:20;;;;;;;440.30;131.27;;;;;;;0.21;84.63;101087.27;4968550;60;21334;-87
2021/01/09 15:43:25;;;;;;;57.63;30.23;;;;;;;0.21;84.68;101092.47;4968868;59;21162;-89
2021/01/09 15:48:33;;;;;;;22.20;11.63;;;;;;;0.23;84.74;101098.48;4968420;59;21191;-88
2021/01/09 15:53:38;;;;;;;178.57;59.37;;;;;;;0.24;84.82;101102.80;4966954;60;21140;-88
2021/01/09 15:58:45;;;;;;;275.57;102.13;;;;;;;0.27;84.86;101108.37;4846537;59;1136911;-88
2021/01/09 16:03:50;;;;;;;60.27;29.97;;;;;;;0.24;84.91;101108.00;4865820;59;1140485;-88
2021/01/09 16:08:56;;;;;;;165.43;54.40;;;;;;;0.19;85.07;101105.95;4829660;59;1138315;-88
2021/01/09 16:20:25;;;;;;;93.97;35.07;;;;;;;0.21;85.19;101108.52;4676282;63;1140673;-88
2021/01/09 16:25:27;;;;;;;88.20;39.37;;;;;;;0.18;85.29;101113.34;4605865;62;1138713;-88
2021/01/09 16:30:33;;;;;;;40.20;22.00;;;;;;;0.23;85.31;101124.95;4600760;63;1136491;-88
2021/01/09 16:35:38;;;;;;;28.90;14.60;;;;;;;0.24;85.39;101131.41;4733044;62;21187;-88
2021/01/09 16:40:46;;;;;;;39.80;20.67;;;;;;;0.29;85.38;101137.36;4582271;63;1134335;-87
2021/01/09 16:45:51;;;;;;;31.90;18.97;;;;;;;0.33;85.39;101139.41;4531636;64;1138530;-87
2021/01/09 16:50:57;;;;;;;30.88;13.55;;;;;;;0.35;85.42;101146.74;4641949;62;1138819;-87
2021/01/09 16:56:04;;;;;;;118.43;36.70;;;;;;;0.37;85.43;101150.16;4731689;59;1138364;-87
2021/01/09 17:01:11;;;;;;;36.57;16.70;;;;;;;0.37;85.40;101154.06;4945990;59;21176;-88
2021/01/09 17:06:16;;;;;;;35.50;16.13;;;;;;;0.40;85.53;101153.14;4859074;58;1134584;-89
2021/01/09 17:11:22;;;;;;;67.60;34.10;;;;;;;0.41;85.55;101153.55;4877504;58;1138266;-88
2021/01/09 17:16:27;;;;;;;36.03;16.03;;;;;;;0.43;85.51;101155.22;4903947;58;1138487;-89
2021/01/09 17:21:46;;;;;;;53.13;22.43;;;;;;;0.46;85.52;101159.50;4851318;58;1138787;-88
2021/01/09 17:26:53;;;;;;;63.07;33.30;;;;;;;0.45;85.57;101162.55;4929792;59;1136352;-88
2021/01/09 17:32:01;;;;;;;48.97;27.27;;;;;;;0.47;85.52;101167.23;4949939;59;21857;-89
2021/01/09 17:37:09;;;;;;;21.07;10.95;;;;;;;0.47;85.61;101175.48;4901035;59;1134316;-88
2021/01/09 17:42:14;;;;;;;36.17;18.35;;;;;;;0.43;85.68;101165.63;4896975;58;1138501;-89
2021/01/09 17:47:20;;;;;;;25.40;10.10;;;;;;;0.43;85.67;101167.38;4945536;58;1138492;-89
2021/01/09 17:52:26;;;;;;;67.10;27.27;;;;;;;0.43;85.89;101176.48;4895002;58;1138453;-89
2021/01/09 17:57:32;;;;;;;33.33;14.50;;;;;;;0.43;85.88;101181.24;4979406;58;21180;-89
2021/01/09 18:02:41;;;;;;;20.10;9.77;;;;;;;0.46;85.92;101182.91;4879419;61;21129;-90
2021/01/09 18:07:53;;;;;;;34.73;17.40;;;;;;;0.44;85.96;101190.76;4903968;59;1132127;-91
2021/01/09 18:13:00;;;;;;;28.67;15.88;;;;;;;0.45;85.95;101189.02;4878685;58;1138782;-87
2021/01/09 18:18:06;;;;;;;26.85;15.78;;;;;;;0.45;86.02;101183.81;4868643;58;1138523;-88
2021/01/09 18:23:13;;;;;;;25.53;12.27;;;;;;;0.41;86.34;101179.13;4786583;59;1138329;-88
2021/01/09 18:28:20;;;;;;;27.60;13.80;;;;;;;0.41;86.26;101186.08;4899497;58;1138442;-87
2021/01/09 18:33:28;;;;;;;122.53;45.23;;;;;;;0.40;86.31;101180.02;4904208;58;1138512;-88
2021/01/09 18:39:05;;;;;;;72.75;26.85;;;;;;;0.43;86.35;101183.84;4865625;58;1140588;-87
2021/01/09 18:44:12;;;;;;;127.77;53.30;;;;;;;0.35;86.40;101173.61;4900029;58;1138339;-89
2021/01/09 18:49:20;;;;;;;44.80;19.63;;;;;;;0.42;86.47;101173.47;4997736;58;21224;-88
2021/01/09 18:54:26;;;;;;;30.37;13.10;;;;;;;0.40;86.51;101177.86;4907625;60;21140;-88
2021/01/09 18:59:33;;;;;;;88.07;27.63;;;;;;;0.41;86.53;101184.33;4917862;60;21183;-88
2021/01/09 19:04:38;;;;;;;76.23;23.23;;;;;;;0.41;86.54;101191.28;4917114;60;21231;-88
2021/01/09 19:09:45;;;;;;;48.73;18.23;;;;;;;0.43;86.52;101190.80;4913682;60;21163;-88
2021/01/09 19:14:52;;;;;;;41.13;18.33;;;;;;;0.41;86.62;101197.78;4955881;59;21176;-88
2021/01/09 19:19:59;;;;;;;33.27;15.20;;;;;;;0.42;86.62;101205.55;4824101;59;1134232;-88
2021/01/09 19:25:06;;;;;;;24.07;12.58;;;;;;;0.40;86.67;101199.53;4824273;59;1138391;-88
2021/01/09 19:30:12;;;;;;;26.37;12.07;;;;;;;0.43;86.65;101195.55;4811676;61;21186;-87
2021/01/09 19:35:19;;;;;;;38.30;18.87;;;;;;;0.46;86.74;101202.44;4853508;59;1134277;-87
2021/01/09 19:40:26;;;;;;;21.97;9.23;;;;;;;0.46;86.73;101206.34;4843252;59;1138617;-88
2021/01/09 19:45:42;;;;;;;34.63;15.33;;;;;;;0.46;86.86;101202.44;4774854;61;1134022;-87
2021/01/09 19:50:50;;;;;;;34.63;16.17;;;;;;;0.48;86.81;101205.83;4918486;60;21212;-88
2021/01/09 19:55:57;;;;;;;36.90;16.83;;;;;;;0.47;86.88;101200.20;4938205;58;21098;-88
2021/01/09 20:01:15;;;;;;;30.23;14.23;;;;;;;0.50;86.92;101208.80;4938778;60;21340;-89
2021/01/09 20:06:20;;;;;;;34.53;13.90;;;;;;;0.55;86.81;101209.55;4938809;60;21323;-88
2021/01/09 20:11:30;;;;;;;33.10;14.33;;;;;;;0.52;86.88;101208.32;4939982;59;21298;-88
2021/01/09 20:16:36;;;;;;;30.17;14.80;;;;;;;0.50;86.86;101208.80;4938690;60;21161;-88
2021/01/09 20:21:52;;;;;;;38.00;17.80;;;;;;;0.49;87.00;101207.09;4932679;59;21519;-89
2021/01/09 20:26:59;;;;;;;27.83;12.40;;;;;;;0.49;86.95;101216.64;4923279;60;21164;-87
2021/01/09 20:32:14;;;;;;;22.27;10.57;;;;;;;0.52;87.03;101221.78;4931412;60;21149;-88
2021/01/09 20:37:17;;;;;;;35.60;15.30;;;;;;;0.52;87.06;101221.33;4878329;59;1134350;-88
2021/01/09 20:42:23;;;;;;;26.63;11.50;;;;;;;0.53;86.97;101220.44;4699629;61;1138590;-87
2021/01/09 20:47:28;;;;;;;33.70;13.30;;;;;;;0.55;87.03;101225.61;4866898;59;1138257;-85
2021/01/09 20:52:34;;;;;;;31.80;12.43;;;;;;;0.53;87.02;101224.34;4819446;59;1138321;-87
2021/01/09 20:57:40;;;;;;;24.13;10.10;;;;;;;0.53;87.11;101225.64;4823475;60;1138293;-87
2021/01/09 21:02:45;;;;;;;30.33;14.40;;;;;;;0.53;87.08;101231.30;4964613;59;21153;-86
2021/01/09 21:07:51;;;;;;;26.03;11.70;;;;;;;0.49;87.12;101240.06;4989921;59;21173;-86
2021/01/09 21:12:57;;;;;;;17.20;8.13;;;;;;;0.48;87.23;101243.11;4880197;61;21164;-86
2021/01/09 21:18:02;;;;;;;30.13;12.10;;;;;;;0.47;87.27;101247.91;4880438;60;21220;-86
2021/01/09 21:23:08;;;;;;;26.07;8.87;;;;;;;0.48;87.23;101250.06;4880160;60;21273;-86
2021/01/09 21:28:13;;;;;;;23.92;8.18;;;;;;;0.47;87.34;101250.51;4787799;60;1132170;-86
2021/01/09 21:33:20;;;;;;;34.00;12.60;;;;;;;0.48;87.42;101246.16;4905717;58;1136229;-85
2021/01/09 21:38:26;;;;;;;25.10;9.87;;;;;;;0.48;87.35;101250.92;4885262;58;1138477;-85
2021/01/09 21:43:32;;;;;;;35.17;11.83;;;;;;;0.46;87.62;101257.08;4961544;59;1134383;-85
2021/01/09 21:48:43;;;;;;;31.30;11.97;;;;;;;0.44;87.57;101262.77;4979750;59;21148;-85
2021/01/09 21:53:50;;;;;;;35.47;13.20;;;;;;;0.45;87.55;101265.33;4785680;60;1134298;-85
2021/01/09 21:59:01;;;;;;;23.10;9.83;;;;;;;0.48;87.54;101260.47;4876477;58;1138376;-86
2021/01/09 22:04:10;;;;;;;24.52;10.13;;;;;;;0.47;87.50;101265.27;4908907;58;1136290;-85
2021/01/09 22:09:21;;;;;;;36.87;16.37;;;;;;;0.48;87.52;101263.08;4854934;59;1138369;-85
2021/01/09 22:14:27;;;;;;;34.43;13.53;;;;;;;0.50;87.52;101266.50;4822222;60;1138292;-85
2021/01/09 22:19:33;;;;;;;32.87;14.93;;;;;;;0.51;87.54;101274.72;4892944;58;1138338;-85
2021/01/09 22:24:38;;;;;;;30.13;13.43;;;;;;;0.51;87.48;101271.67;4984748;59;21427;-85
2021/01/09 22:29:44;;;;;;;31.13;14.63;;;;;;;0.53;87.46;101271.19;4879967;61;21184;-85
2021/01/09 22:34:49;;;;;;;36.50;15.67;;;;;;;0.57;87.38;101268.08;4982067;59;21168;-85
2021/01/09 22:39:55;;;;;;;36.53;15.27;;;;;;;0.53;87.46;101267.29;4880412;60;21161;-85
2021/01/09 22:45:01;;;;;;;24.87;10.50;;;;;;;0.56;87.34;101268.52;4965488;59;1134277;-85
2021/01/09 22:50:08;;;;;;;41.60;17.27;;;;;;;0.58;87.36;101266.73;4805526;60;1138440;-85
2021/01/09 22:55:14;;;;;;;41.70;18.77;;;;;;;0.54;87.34;101273.34;4995265;59;21145;-85
2021/01/09 23:00:25;;;;;;;34.57;17.20;;;;;;;0.58;87.40;101271.09;4946995;60;21125;-85
2021/01/09 23:05:30;;;;;;;40.13;17.57;;;;;;;0.60;87.40;101270.16;4765987;61;1134478;-85
2021/01/09 23:10:36;;;;;;;54.77;18.53;;;;;;;0.61;87.48;101277.05;4707364;60;1138356;-85
2021/01/09 23:15:42;;;;;;;46.50;17.13;;;;;;;0.62;87.34;101274.86;4819626;61;21204;-85